SAS50G EKCH-ENGM
Flight info
| Callsign | SAS50G |
|---|---|
| Flight time | 0h 59m |
| Altitude | 36000 |
| Route | VEDAR DCT SABAK DCT LUNIP |
| Aircraft | A319/M-SDE3FGHIRWY/LB1 |
Departure
| Time | 2026-04-30 12:30 |
|---|---|
| Airport | Copenhagen Kastrup Airport (EKCH) |
Arrival
| Time | 2026-04-30 13:29 |
|---|---|
| Airport | Oslo-Gardermoen International Airport (ENGM) |
| Time | Latitude | Longitude | Altitude | Speed | Heading |
|---|---|---|---|---|---|
| 2026-04-30 11:57 | 55.62725 | 12.65326 | 27 ft | 0 kts | 17° |
| 2026-04-30 12:19 | 55.62724 | 12.65325 | 24 ft | 1 kts | 17° |
| 2026-04-30 12:19 | 55.62701 | 12.65313 | 25 ft | 4 kts | 17° |
| 2026-04-30 12:19 | 55.62680 | 12.65302 | 25 ft | 4 kts | 9° |
| 2026-04-30 12:19 | 55.62654 | 12.65303 | 24 ft | 4 kts | 344° |
| 2026-04-30 12:20 | 55.62629 | 12.65317 | 27 ft | 4 kts | 351° |
| 2026-04-30 12:20 | 55.62608 | 12.65320 | 25 ft | 3 kts | 359° |
| 2026-04-30 12:20 | 55.62604 | 12.65320 | 24 ft | 0 kts | 359° |
| 2026-04-30 12:23 | 55.62610 | 12.65320 | 24 ft | 2 kts | 359° |
| 2026-04-30 12:23 | 55.62635 | 12.65311 | 24 ft | 5 kts | 343° |
| 2026-04-30 12:24 | 55.62656 | 12.65247 | 24 ft | 7 kts | 263° |
| 2026-04-30 12:24 | 55.62613 | 12.65187 | 24 ft | 9 kts | 195° |
| 2026-04-30 12:24 | 55.62544 | 12.65185 | 24 ft | 11 kts | 179° |
| 2026-04-30 12:24 | 55.62461 | 12.65194 | 24 ft | 13 kts | 172° |
| 2026-04-30 12:25 | 55.62365 | 12.65202 | 24 ft | 13 kts | 179° |
| 2026-04-30 12:25 | 55.62279 | 12.65196 | 24 ft | 10 kts | 183° |
| 2026-04-30 12:25 | 55.62205 | 12.65171 | 24 ft | 12 kts | 201° |
| 2026-04-30 12:25 | 55.62130 | 12.65089 | 24 ft | 14 kts | 213° |
| 2026-04-30 12:26 | 55.62047 | 12.64991 | 24 ft | 15 kts | 213° |
| 2026-04-30 12:26 | 55.61951 | 12.64880 | 26 ft | 18 kts | 213° |
| 2026-04-30 12:26 | 55.61838 | 12.64752 | 24 ft | 20 kts | 213° |
| 2026-04-30 12:26 | 55.61714 | 12.64609 | 24 ft | 22 kts | 213° |
| 2026-04-30 12:27 | 55.61577 | 12.64452 | 26 ft | 25 kts | 213° |
| 2026-04-30 12:27 | 55.61427 | 12.64280 | 24 ft | 27 kts | 213° |
| 2026-04-30 12:27 | 55.61265 | 12.64095 | 24 ft | 29 kts | 213° |
| 2026-04-30 12:27 | 55.61122 | 12.63931 | 24 ft | 25 kts | 213° |
| 2026-04-30 12:28 | 55.60967 | 12.63751 | 24 ft | 28 kts | 213° |
| 2026-04-30 12:28 | 55.60859 | 12.63625 | 24 ft | 12 kts | 213° |
| 2026-04-30 12:28 | 55.60780 | 12.63617 | 24 ft | 13 kts | 148° |
| 2026-04-30 12:28 | 55.60715 | 12.63746 | 24 ft | 15 kts | 130° |
| 2026-04-30 12:29 | 55.60681 | 12.63868 | 26 ft | 10 kts | 64° |
| 2026-04-30 12:29 | 55.60704 | 12.63908 | 27 ft | 0 kts | 39° |
| 2026-04-30 12:29 | 55.60714 | 12.63922 | 27 ft | 11 kts | 39° |
| 2026-04-30 12:29 | 55.60944 | 12.64273 | 25 ft | 76 kts | 41° |
| 2026-04-30 12:30 | 55.61494 | 12.65134 | 23 ft | 133 kts | 41° |
| 2026-04-30 12:30 | 55.62001 | 12.65908 | 217 ft | 147 kts | 39° |
| 2026-04-30 12:30 | 55.62777 | 12.67115 | 846 ft | 151 kts | 37° |
| 2026-04-30 12:30 | 55.63574 | 12.68360 | 1492 ft | 153 kts | 37° |
| 2026-04-30 12:31 | 55.64706 | 12.70114 | 2103 ft | 175 kts | 37° |
| 2026-04-30 12:31 | 55.65786 | 12.71284 | 2472 ft | 190 kts | 13° |
| 2026-04-30 12:31 | 55.66680 | 12.71469 | 2705 ft | 203 kts | 353° |
| 2026-04-30 12:31 | 55.68642 | 12.70597 | 3422 ft | 232 kts | 343° |
| 2026-04-30 12:32 | 55.69700 | 12.70062 | 3881 ft | 244 kts | 343° |
| 2026-04-30 12:32 | 55.71385 | 12.69440 | 4826 ft | 250 kts | 352° |
| 2026-04-30 12:32 | 55.73134 | 12.69263 | 5885 ft | 253 kts | 0° |
| 2026-04-30 12:32 | 55.74902 | 12.69419 | 6914 ft | 257 kts | 2° |
| 2026-04-30 12:33 | 55.76693 | 12.69448 | 7680 ft | 262 kts | 359° |
| 2026-04-30 12:33 | 55.78524 | 12.69269 | 8650 ft | 265 kts | 356° |
| 2026-04-30 12:33 | 55.80362 | 12.68827 | 9648 ft | 269 kts | 349° |
| 2026-04-30 12:33 | 55.82106 | 12.67523 | 10535 ft | 279 kts | 330° |
| 2026-04-30 12:34 | 55.83563 | 12.65101 | 11120 ft | 301 kts | 310° |
| 2026-04-30 12:34 | 55.84491 | 12.61566 | 11389 ft | 332 kts | 292° |
| 2026-04-30 12:34 | 55.85219 | 12.57558 | 11891 ft | 346 kts | 292° |
| 2026-04-30 12:34 | 55.85977 | 12.53454 | 12587 ft | 352 kts | 293° |
| 2026-04-30 12:35 | 55.86796 | 12.49314 | 13310 ft | 357 kts | 294° |
| 2026-04-30 12:35 | 55.87677 | 12.45135 | 14012 ft | 363 kts | 296° |
| 2026-04-30 12:35 | 55.88674 | 12.40988 | 14658 ft | 364 kts | 304° |
| 2026-04-30 12:35 | 55.90127 | 12.37317 | 15317 ft | 361 kts | 317° |
| 2026-04-30 12:36 | 55.91945 | 12.34352 | 15978 ft | 357 kts | 329° |
| 2026-04-30 12:36 | 55.94084 | 12.32129 | 16660 ft | 354 kts | 341° |
| 2026-04-30 12:36 | 55.96416 | 12.30759 | 17343 ft | 351 kts | 350° |
| 2026-04-30 12:36 | 55.98766 | 12.29672 | 18051 ft | 354 kts | 349° |
| 2026-04-30 12:37 | 56.01156 | 12.28562 | 18738 ft | 357 kts | 349° |
| 2026-04-30 12:37 | 56.03571 | 12.27438 | 19339 ft | 360 kts | 349° |
| 2026-04-30 12:37 | 56.06006 | 12.26299 | 19946 ft | 362 kts | 349° |
| 2026-04-30 12:37 | 56.08455 | 12.25155 | 20561 ft | 365 kts | 349° |
| 2026-04-30 12:38 | 56.10926 | 12.24059 | 21169 ft | 366 kts | 352° |
| 2026-04-30 12:38 | 56.13451 | 12.23350 | 21776 ft | 368 kts | 354° |
| 2026-04-30 12:38 | 56.15994 | 12.22660 | 22347 ft | 371 kts | 354° |
| 2026-04-30 12:38 | 56.18560 | 12.21958 | 22928 ft | 374 kts | 354° |
| 2026-04-30 12:39 | 56.21143 | 12.21248 | 23473 ft | 377 kts | 353° |
| 2026-04-30 12:39 | 56.23740 | 12.20531 | 24027 ft | 379 kts | 353° |
| 2026-04-30 12:39 | 56.26325 | 12.19820 | 24475 ft | 382 kts | 353° |
| 2026-04-30 12:39 | 56.28966 | 12.19095 | 24922 ft | 384 kts | 353° |
| 2026-04-30 12:40 | 56.31619 | 12.18365 | 25358 ft | 387 kts | 353° |
| 2026-04-30 12:40 | 56.34302 | 12.17621 | 25791 ft | 390 kts | 353° |
| 2026-04-30 12:40 | 56.36959 | 12.16881 | 26216 ft | 392 kts | 353° |
| 2026-04-30 12:40 | 56.39668 | 12.16128 | 26628 ft | 395 kts | 352° |
| 2026-04-30 12:41 | 56.42398 | 12.15367 | 27007 ft | 399 kts | 352° |
| 2026-04-30 12:41 | 56.45159 | 12.14595 | 27418 ft | 402 kts | 352° |
| 2026-04-30 12:41 | 56.47933 | 12.13818 | 27832 ft | 404 kts | 352° |
| 2026-04-30 12:41 | 56.50728 | 12.13033 | 28255 ft | 407 kts | 352° |
| 2026-04-30 12:42 | 56.53536 | 12.12248 | 28665 ft | 410 kts | 352° |
| 2026-04-30 12:42 | 56.56369 | 12.11455 | 29069 ft | 412 kts | 352° |
| 2026-04-30 12:42 | 56.59176 | 12.10667 | 29461 ft | 415 kts | 352° |
| 2026-04-30 12:42 | 56.62042 | 12.09866 | 29853 ft | 418 kts | 352° |
| 2026-04-30 12:43 | 56.64925 | 12.09062 | 30226 ft | 420 kts | 352° |
| 2026-04-30 12:43 | 56.67826 | 12.08250 | 30591 ft | 422 kts | 352° |
| 2026-04-30 12:43 | 56.70744 | 12.07432 | 30907 ft | 425 kts | 352° |
| 2026-04-30 12:43 | 56.73678 | 12.06611 | 31205 ft | 427 kts | 351° |
| 2026-04-30 12:44 | 56.76626 | 12.05780 | 31510 ft | 429 kts | 351° |
| 2026-04-30 12:44 | 56.79583 | 12.04937 | 31815 ft | 431 kts | 351° |
| 2026-04-30 12:44 | 56.82547 | 12.04089 | 32227 ft | 431 kts | 351° |
| 2026-04-30 12:44 | 56.85517 | 12.03242 | 32644 ft | 430 kts | 351° |
| 2026-04-30 12:45 | 56.88433 | 12.02416 | 33058 ft | 430 kts | 351° |
| 2026-04-30 12:45 | 56.91390 | 12.01572 | 33474 ft | 429 kts | 351° |
| 2026-04-30 12:45 | 56.94340 | 12.00726 | 33891 ft | 429 kts | 351° |
| 2026-04-30 12:45 | 56.97292 | 11.99886 | 34314 ft | 428 kts | 351° |
| 2026-04-30 12:46 | 57.00242 | 11.99042 | 34702 ft | 428 kts | 351° |
| 2026-04-30 12:46 | 57.03148 | 11.98209 | 35064 ft | 427 kts | 351° |
| 2026-04-30 12:46 | 57.06086 | 11.97362 | 35442 ft | 427 kts | 351° |
| 2026-04-30 12:46 | 57.09018 | 11.96515 | 35817 ft | 426 kts | 351° |
| 2026-04-30 12:47 | 57.11944 | 11.95674 | 36169 ft | 426 kts | 351° |
| 2026-04-30 12:47 | 57.14882 | 11.94830 | 36412 ft | 426 kts | 351° |
| 2026-04-30 12:47 | 57.20716 | 11.93146 | 36454 ft | 423 kts | 351° |
| 2026-04-30 12:48 | 57.26527 | 11.91458 | 36460 ft | 422 kts | 351° |
| 2026-04-30 12:48 | 57.32293 | 11.89784 | 36461 ft | 420 kts | 351° |
| 2026-04-30 12:49 | 57.38030 | 11.88117 | 36459 ft | 414 kts | 350° |
| 2026-04-30 12:49 | 57.43719 | 11.86438 | 36457 ft | 414 kts | 350° |
| 2026-04-30 12:50 | 57.49371 | 11.84771 | 36445 ft | 413 kts | 350° |
| 2026-04-30 12:50 | 57.55050 | 11.83097 | 36451 ft | 413 kts | 350° |
| 2026-04-30 12:51 | 57.60731 | 11.81423 | 36447 ft | 413 kts | 350° |
| 2026-04-30 12:51 | 57.66406 | 11.79747 | 36455 ft | 413 kts | 350° |
| 2026-04-30 12:52 | 57.72088 | 11.78052 | 36460 ft | 413 kts | 350° |
| 2026-04-30 12:52 | 57.77743 | 11.76355 | 36456 ft | 413 kts | 350° |
| 2026-04-30 12:53 | 57.83429 | 11.74659 | 36460 ft | 413 kts | 350° |
| 2026-04-30 12:53 | 57.89082 | 11.72960 | 36457 ft | 414 kts | 350° |
| 2026-04-30 12:54 | 57.94770 | 11.71242 | 36459 ft | 413 kts | 350° |
| 2026-04-30 12:54 | 58.00457 | 11.69521 | 36454 ft | 413 kts | 350° |
| 2026-04-30 12:55 | 58.06140 | 11.67790 | 36429 ft | 413 kts | 350° |
| 2026-04-30 12:55 | 58.11796 | 11.66068 | 36430 ft | 413 kts | 350° |
| 2026-04-30 12:56 | 58.17471 | 11.64333 | 36428 ft | 413 kts | 350° |
| 2026-04-30 12:56 | 58.23115 | 11.62580 | 36427 ft | 413 kts | 350° |
| 2026-04-30 12:57 | 58.28795 | 11.60769 | 36435 ft | 411 kts | 349° |
| 2026-04-30 12:57 | 58.34394 | 11.58970 | 36441 ft | 410 kts | 349° |
| 2026-04-30 12:58 | 58.40026 | 11.57167 | 36440 ft | 409 kts | 350° |
| 2026-04-30 12:58 | 58.45643 | 11.55371 | 36434 ft | 409 kts | 349° |
| 2026-04-30 12:59 | 58.48451 | 11.54470 | 36298 ft | 410 kts | 349° |
| 2026-04-30 12:59 | 58.51230 | 11.53576 | 35950 ft | 409 kts | 349° |
| 2026-04-30 12:59 | 58.54035 | 11.52670 | 35688 ft | 409 kts | 349° |
| 2026-04-30 12:59 | 58.56847 | 11.51760 | 35444 ft | 409 kts | 349° |
| 2026-04-30 13:00 | 58.59654 | 11.50853 | 35198 ft | 409 kts | 349° |
| 2026-04-30 13:00 | 58.62467 | 11.49948 | 34954 ft | 410 kts | 349° |
| 2026-04-30 13:00 | 58.65278 | 11.49041 | 34704 ft | 410 kts | 349° |
| 2026-04-30 13:00 | 58.68096 | 11.48123 | 34468 ft | 411 kts | 349° |
| 2026-04-30 13:01 | 58.70913 | 11.47204 | 34195 ft | 411 kts | 349° |
| 2026-04-30 13:01 | 58.73739 | 11.46281 | 33912 ft | 412 kts | 349° |
| 2026-04-30 13:01 | 58.76538 | 11.45366 | 33635 ft | 412 kts | 349° |
| 2026-04-30 13:01 | 58.79368 | 11.44440 | 33362 ft | 413 kts | 349° |
| 2026-04-30 13:02 | 58.82201 | 11.43510 | 33091 ft | 413 kts | 349° |
| 2026-04-30 13:02 | 58.85040 | 11.42581 | 32824 ft | 415 kts | 349° |
| 2026-04-30 13:02 | 58.87891 | 11.41648 | 32557 ft | 415 kts | 349° |
| 2026-04-30 13:02 | 58.90746 | 11.40711 | 32288 ft | 414 kts | 349° |
| 2026-04-30 13:03 | 58.93586 | 11.39773 | 31974 ft | 413 kts | 349° |
| 2026-04-30 13:03 | 58.96381 | 11.38845 | 31451 ft | 410 kts | 349° |
| 2026-04-30 13:03 | 58.99194 | 11.37909 | 30917 ft | 407 kts | 349° |
| 2026-04-30 13:03 | 59.01985 | 11.36979 | 30377 ft | 405 kts | 349° |
| 2026-04-30 13:04 | 59.04719 | 11.36069 | 29818 ft | 401 kts | 349° |
| 2026-04-30 13:04 | 59.07458 | 11.35160 | 29303 ft | 398 kts | 349° |
| 2026-04-30 13:04 | 59.10219 | 11.34241 | 28781 ft | 404 kts | 349° |
| 2026-04-30 13:04 | 59.12967 | 11.33322 | 28501 ft | 394 kts | 349° |
| 2026-04-30 13:05 | 59.15630 | 11.32446 | 28369 ft | 382 kts | 351° |
| 2026-04-30 13:05 | 59.18246 | 11.32261 | 28226 ft | 373 kts | 2° |
| 2026-04-30 13:05 | 59.20787 | 11.33069 | 27970 ft | 368 kts | 13° |
| 2026-04-30 13:06 | 59.25654 | 11.36063 | 27120 ft | 365 kts | 15° |
| 2026-04-30 13:06 | 59.28061 | 11.37600 | 26712 ft | 363 kts | 15° |
| 2026-04-30 13:06 | 59.30454 | 11.39127 | 26306 ft | 360 kts | 15° |
| 2026-04-30 13:06 | 59.32835 | 11.40639 | 25907 ft | 358 kts | 15° |
| 2026-04-30 13:07 | 59.35202 | 11.42136 | 25484 ft | 355 kts | 15° |
| 2026-04-30 13:07 | 59.37548 | 11.43619 | 25086 ft | 353 kts | 15° |
| 2026-04-30 13:07 | 59.39883 | 11.45099 | 24685 ft | 351 kts | 15° |
| 2026-04-30 13:07 | 59.42167 | 11.46545 | 24292 ft | 348 kts | 15° |
| 2026-04-30 13:08 | 59.44460 | 11.47994 | 23694 ft | 343 kts | 15° |
| 2026-04-30 13:08 | 59.46728 | 11.49427 | 22935 ft | 340 kts | 15° |
| 2026-04-30 13:08 | 59.48965 | 11.50840 | 22205 ft | 336 kts | 15° |
| 2026-04-30 13:08 | 59.51181 | 11.52239 | 21498 ft | 332 kts | 15° |
| 2026-04-30 13:09 | 59.53372 | 11.53626 | 20868 ft | 327 kts | 15° |
| 2026-04-30 13:09 | 59.55525 | 11.54991 | 20379 ft | 323 kts | 15° |
| 2026-04-30 13:09 | 59.57649 | 11.56338 | 19928 ft | 320 kts | 16° |
| 2026-04-30 13:09 | 59.59764 | 11.57682 | 19482 ft | 318 kts | 16° |
| 2026-04-30 13:10 | 59.61863 | 11.59022 | 19044 ft | 315 kts | 16° |
| 2026-04-30 13:10 | 59.63919 | 11.60332 | 18606 ft | 314 kts | 16° |
| 2026-04-30 13:10 | 59.66002 | 11.61662 | 18134 ft | 313 kts | 16° |
| 2026-04-30 13:10 | 59.68072 | 11.62986 | 17685 ft | 312 kts | 16° |
| 2026-04-30 13:11 | 59.70135 | 11.64306 | 17248 ft | 311 kts | 15° |
| 2026-04-30 13:11 | 59.72193 | 11.65623 | 16815 ft | 310 kts | 16° |
| 2026-04-30 13:11 | 59.74246 | 11.66938 | 16384 ft | 309 kts | 16° |
| 2026-04-30 13:11 | 59.76296 | 11.68249 | 15951 ft | 308 kts | 15° |
| 2026-04-30 13:12 | 59.78331 | 11.69552 | 15584 ft | 305 kts | 16° |
| 2026-04-30 13:12 | 59.80328 | 11.70836 | 15163 ft | 305 kts | 16° |
| 2026-04-30 13:12 | 59.82341 | 11.72134 | 14738 ft | 305 kts | 16° |
| 2026-04-30 13:13 | 59.86335 | 11.74719 | 14014 ft | 299 kts | 16° |
| 2026-04-30 13:13 | 59.88312 | 11.76003 | 13441 ft | 299 kts | 16° |
| 2026-04-30 13:13 | 59.92223 | 11.78548 | 12553 ft | 293 kts | 15° |
| 2026-04-30 13:14 | 59.94149 | 11.79802 | 12172 ft | 289 kts | 15° |
| 2026-04-30 13:14 | 59.96033 | 11.81031 | 11868 ft | 288 kts | 15° |
| 2026-04-30 13:14 | 59.99836 | 11.83510 | 11233 ft | 286 kts | 15° |
| 2026-04-30 13:15 | 60.01724 | 11.84744 | 10916 ft | 284 kts | 15° |
| 2026-04-30 13:15 | 60.05506 | 11.86717 | 10358 ft | 277 kts | 357° |
| 2026-04-30 13:15 | 60.07351 | 11.86012 | 10205 ft | 272 kts | 336° |
| 2026-04-30 13:16 | 60.08985 | 11.84106 | 10077 ft | 272 kts | 326° |
| 2026-04-30 13:16 | 60.10573 | 11.82035 | 9902 ft | 272 kts | 326° |
| 2026-04-30 13:16 | 60.12161 | 11.79963 | 9611 ft | 271 kts | 326° |
| 2026-04-30 13:17 | 60.15311 | 11.75834 | 9103 ft | 269 kts | 326° |
| 2026-04-30 13:17 | 60.16879 | 11.73772 | 8846 ft | 268 kts | 326° |
| 2026-04-30 13:17 | 60.19464 | 11.70366 | 8425 ft | 265 kts | 326° |
| 2026-04-30 13:18 | 60.21484 | 11.67705 | 8089 ft | 259 kts | 326° |
| 2026-04-30 13:18 | 60.24450 | 11.63798 | 7650 ft | 250 kts | 325° |
| 2026-04-30 13:18 | 60.25888 | 11.61903 | 7425 ft | 245 kts | 325° |
| 2026-04-30 13:19 | 60.27302 | 11.60037 | 7209 ft | 241 kts | 325° |
| 2026-04-30 13:19 | 60.28688 | 11.58204 | 6992 ft | 236 kts | 325° |
| 2026-04-30 13:19 | 60.30032 | 11.56424 | 6767 ft | 232 kts | 325° |
| 2026-04-30 13:19 | 60.31374 | 11.54640 | 6550 ft | 230 kts | 325° |
| 2026-04-30 13:20 | 60.32710 | 11.52860 | 6317 ft | 229 kts | 325° |
| 2026-04-30 13:20 | 60.34044 | 11.51076 | 6088 ft | 229 kts | 325° |
| 2026-04-30 13:20 | 60.35361 | 11.49314 | 5864 ft | 224 kts | 324° |
| 2026-04-30 13:20 | 60.36637 | 11.47610 | 5682 ft | 215 kts | 324° |
| 2026-04-30 13:21 | 60.37865 | 11.45979 | 5529 ft | 207 kts | 324° |
| 2026-04-30 13:21 | 60.39048 | 11.44409 | 5379 ft | 199 kts | 324° |
| 2026-04-30 13:21 | 60.40110 | 11.42678 | 5228 ft | 193 kts | 311° |
| 2026-04-30 13:22 | 60.41288 | 11.38254 | 4958 ft | 173 kts | 283° |
| 2026-04-30 13:22 | 60.41431 | 11.35903 | 4793 ft | 165 kts | 270° |
| 2026-04-30 13:22 | 60.41026 | 11.31384 | 4490 ft | 163 kts | 256° |
| 2026-04-30 13:23 | 60.40748 | 11.29158 | 4345 ft | 163 kts | 256° |
| 2026-04-30 13:23 | 60.40011 | 11.24915 | 4029 ft | 162 kts | 233° |
| 2026-04-30 13:24 | 60.38060 | 11.22701 | 3739 ft | 165 kts | 197° |
| 2026-04-30 13:24 | 60.35862 | 11.21401 | 3543 ft | 163 kts | 197° |
| 2026-04-30 13:25 | 60.33690 | 11.20123 | 3468 ft | 165 kts | 198° |
| 2026-04-30 13:25 | 60.31510 | 11.18842 | 3079 ft | 162 kts | 198° |
| 2026-04-30 13:26 | 60.28447 | 11.17063 | 2350 ft | 143 kts | 197° |
| 2026-04-30 13:26 | 60.26617 | 11.16030 | 1999 ft | 133 kts | 198° |
| 2026-04-30 13:27 | 60.24840 | 11.14985 | 1644 ft | 132 kts | 197° |
| 2026-04-30 13:28 | 60.22201 | 11.13460 | 1182 ft | 133 kts | 194° |
| 2026-04-30 13:28 | 60.20726 | 11.12605 | 868 ft | 131 kts | 195° |
| 2026-04-30 13:28 | 60.19840 | 11.12098 | 703 ft | 131 kts | 195° |
| 2026-04-30 13:29 | 60.18709 | 11.11436 | 692 ft | 50 kts | 196° |
| 2026-04-30 13:29 | 60.18441 | 11.11133 | 692 ft | 14 kts | 256° |
| 2026-04-30 13:30 | 60.18635 | 11.10995 | 683 ft | 15 kts | 15° |
| 2026-04-30 13:31 | 60.18797 | 11.11083 | 687 ft | 12 kts | 15° |
| 2026-04-30 13:31 | 60.19039 | 11.11211 | 691 ft | 7 kts | 18° |
| 2026-04-30 13:32 | 60.19158 | 11.11290 | 688 ft | 11 kts | 18° |
| 2026-04-30 13:32 | 60.19331 | 11.11392 | 690 ft | 15 kts | 16° |
| 2026-04-30 13:33 | 60.19428 | 11.11158 | 689 ft | 14 kts | 285° |
| 2026-04-30 13:33 | 60.19484 | 11.10747 | 689 ft | 14 kts | 287° |
| 2026-04-30 13:34 | 60.19515 | 11.10551 | 689 ft | 10 kts | 286° |
| 2026-04-30 13:34 | 60.19480 | 11.10375 | 690 ft | 4 kts | 195° |
| 2026-04-30 13:35 | 60.19457 | 11.10361 | 691 ft | 2 kts | 197° |
| 2026-04-30 13:35 | 60.19442 | 11.10353 | 691 ft | 0 kts | 196° |